sensor_id;sensor_type;location;lat;lon;timestamp;temperature;humidity
49679;DHT22;35570;48.218;16.326;2023-06-10T00:02:09;18.80;99.90
49679;DHT22;35570;48.218;16.326;2023-06-10T00:04:36;18.80;99.90
49679;DHT22;35570;48.218;16.326;2023-06-10T00:07:05;18.80;99.90
49679;DHT22;35570;48.218;16.326;2023-06-10T00:09:37;18.80;99.90
49679;DHT22;35570;48.218;16.326;2023-06-10T00:12:09;18.80;99.90
49679;DHT22;35570;48.218;16.326;2023-06-10T00:14:39;18.80;99.90
49679;DHT22;35570;48.218;16.326;2023-06-10T00:17:06;18.70;99.90
49679;DHT22;35570;48.218;16.326;2023-06-10T00:19:34;18.70;99.90
49679;DHT22;35570;48.218;16.326;2023-06-10T00:22:00;18.70;99.90
49679;DHT22;35570;48.218;16.326;2023-06-10T00:24:26;18.70;99.90
49679;DHT22;35570;48.218;16.326;2023-06-10T00:26:51;18.60;99.90
49679;DHT22;35570;48.218;16.326;2023-06-10T00:29:17;18.60;99.90
49679;DHT22;35570;48.218;16.326;2023-06-10T00:31:45;18.60;99.90
49679;DHT22;35570;48.218;16.326;2023-06-10T00:34:12;18.50;99.90
49679;DHT22;35570;48.218;16.326;2023-06-10T00:36:38;18.50;99.90
49679;DHT22;35570;48.218;16.326;2023-06-10T00:39:03;18.60;99.90
49679;DHT22;35570;48.218;16.326;2023-06-10T00:41:32;18.60;99.90
49679;DHT22;35570;48.218;16.326;2023-06-10T00:43:59;18.60;99.90
49679;DHT22;35570;48.218;16.326;2023-06-10T00:46:25;18.60;99.90
49679;DHT22;35570;48.218;16.326;2023-06-10T00:48:52;18.60;99.90
49679;DHT22;35570;48.218;16.326;2023-06-10T00:51:18;18.60;99.90
49679;DHT22;35570;48.218;16.326;2023-06-10T00:53:45;18.60;99.90
49679;DHT22;35570;48.218;16.326;2023-06-10T00:56:10;18.60;99.90
49679;DHT22;35570;48.218;16.326;2023-06-10T00:58:36;18.60;99.90
49679;DHT22;35570;48.218;16.326;2023-06-10T01:01:02;18.60;99.90
49679;DHT22;35570;48.218;16.326;2023-06-10T01:03:29;18.60;99.90
49679;DHT22;35570;48.218;16.326;2023-06-10T01:06:14;18.60;99.90
49679;DHT22;35570;48.218;16.326;2023-06-10T01:08:57;18.60;99.90
49679;DHT22;35570;48.218;16.326;2023-06-10T01:11:34;18.70;99.90
49679;DHT22;35570;48.218;16.326;2023-06-10T01:14:03;18.60;99.90
49679;DHT22;35570;48.218;16.326;2023-06-10T01:16:30;18.60;99.90
49679;DHT22;35570;48.218;16.326;2023-06-10T01:18:56;18.60;99.90
49679;DHT22;35570;48.218;16.326;2023-06-10T01:21:23;18.60;99.90
49679;DHT22;35570;48.218;16.326;2023-06-10T01:23:50;18.70;99.90
49679;DHT22;35570;48.218;16.326;2023-06-10T01:26:16;18.60;99.90
49679;DHT22;35570;48.218;16.326;2023-06-10T01:28:51;18.60;99.90
49679;DHT22;35570;48.218;16.326;2023-06-10T01:34:08;18.70;99.90
49679;DHT22;35570;48.218;16.326;2023-06-10T01:36:36;18.60;99.90
49679;DHT22;35570;48.218;16.326;2023-06-10T01:39:04;18.60;99.90
49679;DHT22;35570;48.218;16.326;2023-06-10T01:41:31;18.60;99.90
49679;DHT22;35570;48.218;16.326;2023-06-10T01:43:57;18.60;99.90
49679;DHT22;35570;48.218;16.326;2023-06-10T01:46:22;18.60;99.90
49679;DHT22;35570;48.218;16.326;2023-06-10T01:48:48;18.50;99.90
49679;DHT22;35570;48.218;16.326;2023-06-10T01:51:14;18.60;99.90
49679;DHT22;35570;48.218;16.326;2023-06-10T01:53:39;18.50;99.90
49679;DHT22;35570;48.218;16.326;2023-06-10T01:56:05;18.50;99.90
49679;DHT22;35570;48.218;16.326;2023-06-10T01:58:31;18.60;99.90
49679;DHT22;35570;48.218;16.326;2023-06-10T02:00:56;18.60;99.90
49679;DHT22;35570;48.218;16.326;2023-06-10T02:03:22;18.60;99.90
49679;DHT22;35570;48.218;16.326;2023-06-10T02:05:48;18.60;99.90
49679;DHT22;35570;48.218;16.326;2023-06-10T02:08:14;18.60;99.90
49679;DHT22;35570;48.218;16.326;2023-06-10T02:10:40;18.60;99.90
49679;DHT22;35570;48.218;16.326;2023-06-10T02:13:06;18.70;99.90
49679;DHT22;35570;48.218;16.326;2023-06-10T02:15:32;18.60;99.90
49679;DHT22;35570;48.218;16.326;2023-06-10T02:17:57;18.60;99.90
49679;DHT22;35570;48.218;16.326;2023-06-10T02:20:23;18.60;99.90
49679;DHT22;35570;48.218;16.326;2023-06-10T02:22:48;18.60;99.90
49679;DHT22;35570;48.218;16.326;2023-06-10T02:25:14;18.60;99.90
49679;DHT22;35570;48.218;16.326;2023-06-10T02:27:40;18.60;99.90
49679;DHT22;35570;48.218;16.326;2023-06-10T02:30:06;18.60;99.90
49679;DHT22;35570;48.218;16.326;2023-06-10T02:32:32;18.70;99.90
49679;DHT22;35570;48.218;16.326;2023-06-10T02:34:57;18.70;99.90
49679;DHT22;35570;48.218;16.326;2023-06-10T02:37:25;18.70;99.90
49679;DHT22;35570;48.218;16.326;2023-06-10T02:39:51;18.60;99.90
49679;DHT22;35570;48.218;16.326;2023-06-10T02:42:16;18.60;99.90
49679;DHT22;35570;48.218;16.326;2023-06-10T02:44:42;18.70;99.90
49679;DHT22;35570;48.218;16.326;2023-06-10T02:47:07;18.70;99.90
49679;DHT22;35570;48.218;16.326;2023-06-10T02:49:33;18.70;99.90
49679;DHT22;35570;48.218;16.326;2023-06-10T02:51:58;18.70;99.90
49679;DHT22;35570;48.218;16.326;2023-06-10T02:54:24;18.60;99.90
49679;DHT22;35570;48.218;16.326;2023-06-10T02:56:51;18.60;99.90
49679;DHT22;35570;48.218;16.326;2023-06-10T02:59:17;18.60;99.90
49679;DHT22;35570;48.218;16.326;2023-06-10T03:01:43;18.60;99.90
49679;DHT22;35570;48.218;16.326;2023-06-10T03:04:09;18.60;99.90
49679;DHT22;35570;48.218;16.326;2023-06-10T03:06:35;18.60;99.90
49679;DHT22;35570;48.218;16.326;2023-06-10T03:09:01;18.70;99.90
49679;DHT22;35570;48.218;16.326;2023-06-10T03:11:29;18.70;99.90
49679;DHT22;35570;48.218;16.326;2023-06-10T03:13:56;18.70;99.90
49679;DHT22;35570;48.218;16.326;2023-06-10T03:16:22;18.70;99.90
49679;DHT22;35570;48.218;16.326;2023-06-10T03:18:50;18.70;99.90
49679;DHT22;35570;48.218;16.326;2023-06-10T03:21:16;18.70;99.90
49679;DHT22;35570;48.218;16.326;2023-06-10T03:23:42;18.70;99.90
49679;DHT22;35570;48.218;16.326;2023-06-10T03:26:07;18.80;99.90
49679;DHT22;35570;48.218;16.326;2023-06-10T03:28:34;18.80;99.90
49679;DHT22;35570;48.218;16.326;2023-06-10T03:31:00;18.80;99.90
49679;DHT22;35570;48.218;16.326;2023-06-10T03:33:25;18.80;99.90
49679;DHT22;35570;48.218;16.326;2023-06-10T03:35:51;18.80;99.90
49679;DHT22;35570;48.218;16.326;2023-06-10T03:38:17;18.90;99.90
49679;DHT22;35570;48.218;16.326;2023-06-10T03:40:42;18.90;99.90
49679;DHT22;35570;48.218;16.326;2023-06-10T03:43:08;18.90;99.90
49679;DHT22;35570;48.218;16.326;2023-06-10T03:45:34;18.90;99.90
49679;DHT22;35570;48.218;16.326;2023-06-10T03:48:00;18.90;99.90
49679;DHT22;35570;48.218;16.326;2023-06-10T03:50:26;18.90;99.90
49679;DHT22;35570;48.218;16.326;2023-06-10T03:52:52;18.90;99.90
49679;DHT22;35570;48.218;16.326;2023-06-10T03:55:17;19.00;99.90
49679;DHT22;35570;48.218;16.326;2023-06-10T03:57:43;19.00;99.90
49679;DHT22;35570;48.218;16.326;2023-06-10T04:00:09;19.00;99.90
49679;DHT22;35570;48.218;16.326;2023-06-10T04:02:37;19.00;99.90
49679;DHT22;35570;48.218;16.326;2023-06-10T04:05:07;19.10;99.90
49679;DHT22;35570;48.218;16.326;2023-06-10T04:07:33;19.10;99.90
49679;DHT22;35570;48.218;16.326;2023-06-10T04:09:59;19.10;99.90
49679;DHT22;35570;48.218;16.326;2023-06-10T04:12:25;19.10;99.90
49679;DHT22;35570;48.218;16.326;2023-06-10T04:14:50;19.20;99.90
49679;DHT22;35570;48.218;16.326;2023-06-10T04:17:17;19.20;99.90
49679;DHT22;35570;48.218;16.326;2023-06-10T04:19:43;19.20;99.90
49679;DHT22;35570;48.218;16.326;2023-06-10T04:22:09;19.30;99.90
49679;DHT22;35570;48.218;16.326;2023-06-10T04:24:34;19.30;99.90
49679;DHT22;35570;48.218;16.326;2023-06-10T04:27:01;19.30;99.90
49679;DHT22;35570;48.218;16.326;2023-06-10T04:29:26;19.30;99.90
49679;DHT22;35570;48.218;16.326;2023-06-10T04:31:52;19.30;99.90
49679;DHT22;35570;48.218;16.326;2023-06-10T04:34:19;19.30;99.90
49679;DHT22;35570;48.218;16.326;2023-06-10T04:36:44;19.30;99.90
49679;DHT22;35570;48.218;16.326;2023-06-10T04:39:10;19.40;99.90
49679;DHT22;35570;48.218;16.326;2023-06-10T04:41:36;19.40;99.90
49679;DHT22;35570;48.218;16.326;2023-06-10T04:44:02;19.40;99.90
49679;DHT22;35570;48.218;16.326;2023-06-10T04:46:28;19.40;99.90
49679;DHT22;35570;48.218;16.326;2023-06-10T04:48:55;19.50;99.90
49679;DHT22;35570;48.218;16.326;2023-06-10T04:51:21;19.50;99.90
49679;DHT22;35570;48.218;16.326;2023-06-10T04:53:47;19.50;99.90
49679;DHT22;35570;48.218;16.326;2023-06-10T04:56:12;19.60;99.90
49679;DHT22;35570;48.218;16.326;2023-06-10T04:58:38;19.70;99.90
49679;DHT22;35570;48.218;16.326;2023-06-10T05:01:03;19.70;99.90
49679;DHT22;35570;48.218;16.326;2023-06-10T05:03:29;19.80;99.90
49679;DHT22;35570;48.218;16.326;2023-06-10T05:05:55;19.80;99.90
49679;DHT22;35570;48.218;16.326;2023-06-10T05:08:20;19.80;99.90
49679;DHT22;35570;48.218;16.326;2023-06-10T05:10:46;19.80;99.90
49679;DHT22;35570;48.218;16.326;2023-06-10T05:13:12;19.80;99.90
49679;DHT22;35570;48.218;16.326;2023-06-10T05:15:37;19.80;99.90
49679;DHT22;35570;48.218;16.326;2023-06-10T05:18:03;19.80;99.90
49679;DHT22;35570;48.218;16.326;2023-06-10T05:20:29;19.80;99.90
49679;DHT22;35570;48.218;16.326;2023-06-10T05:22:54;19.80;99.90
49679;DHT22;35570;48.218;16.326;2023-06-10T05:25:20;19.90;99.90
49679;DHT22;35570;48.218;16.326;2023-06-10T05:27:46;19.90;99.90
49679;DHT22;35570;48.218;16.326;2023-06-10T05:30:12;19.90;99.90
49679;DHT22;35570;48.218;16.326;2023-06-10T05:32:38;19.90;99.90
49679;DHT22;35570;48.218;16.326;2023-06-10T05:35:03;20.00;99.90
49679;DHT22;35570;48.218;16.326;2023-06-10T05:37:30;19.90;99.90
49679;DHT22;35570;48.218;16.326;2023-06-10T05:39:55;20.00;99.90
49679;DHT22;35570;48.218;16.326;2023-06-10T05:42:21;20.10;99.90
49679;DHT22;35570;48.218;16.326;2023-06-10T05:44:47;20.10;99.90
49679;DHT22;35570;48.218;16.326;2023-06-10T05:47:12;20.10;99.90
49679;DHT22;35570;48.218;16.326;2023-06-10T05:49:38;20.20;99.90
49679;DHT22;35570;48.218;16.326;2023-06-10T05:52:04;20.20;99.90
49679;DHT22;35570;48.218;16.326;2023-06-10T05:54:30;20.10;99.90
49679;DHT22;35570;48.218;16.326;2023-06-10T05:56:55;20.10;99.90
49679;DHT22;35570;48.218;16.326;2023-06-10T05:59:21;20.10;99.90
49679;DHT22;35570;48.218;16.326;2023-06-10T06:01:48;20.00;99.90
49679;DHT22;35570;48.218;16.326;2023-06-10T06:04:15;20.00;99.90
49679;DHT22;35570;48.218;16.326;2023-06-10T06:06:41;20.00;99.90
49679;DHT22;35570;48.218;16.326;2023-06-10T06:09:07;20.00;99.90
49679;DHT22;35570;48.218;16.326;2023-06-10T06:11:34;19.90;99.90
49679;DHT22;35570;48.218;16.326;2023-06-10T06:14:00;19.90;99.90
49679;DHT22;35570;48.218;16.326;2023-06-10T06:16:25;19.90;99.90
49679;DHT22;35570;48.218;16.326;2023-06-10T06:18:51;19.80;99.90
49679;DHT22;35570;48.218;16.326;2023-06-10T06:21:17;19.80;99.90
49679;DHT22;35570;48.218;16.326;2023-06-10T06:23:42;19.80;99.90
49679;DHT22;35570;48.218;16.326;2023-06-10T06:26:08;19.80;99.90
49679;DHT22;35570;48.218;16.326;2023-06-10T06:28:34;19.80;99.90
49679;DHT22;35570;48.218;16.326;2023-06-10T06:30:59;19.80;99.90
49679;DHT22;35570;48.218;16.326;2023-06-10T06:33:25;19.80;99.90
49679;DHT22;35570;48.218;16.326;2023-06-10T06:35:51;19.80;99.90
49679;DHT22;35570;48.218;16.326;2023-06-10T06:38:17;19.80;99.90
49679;DHT22;35570;48.218;16.326;2023-06-10T06:40:43;19.80;99.90
49679;DHT22;35570;48.218;16.326;2023-06-10T06:43:08;19.80;99.90
49679;DHT22;35570;48.218;16.326;2023-06-10T06:45:34;19.80;99.90
49679;DHT22;35570;48.218;16.326;2023-06-10T06:48:00;19.80;99.90
49679;DHT22;35570;48.218;16.326;2023-06-10T06:50:25;19.80;99.90
49679;DHT22;35570;48.218;16.326;2023-06-10T06:52:51;19.90;99.90
49679;DHT22;35570;48.218;16.326;2023-06-10T06:55:16;19.90;99.90
49679;DHT22;35570;48.218;16.326;2023-06-10T06:57:42;19.90;99.90
49679;DHT22;35570;48.218;16.326;2023-06-10T07:00:08;20.00;99.90
49679;DHT22;35570;48.218;16.326;2023-06-10T07:02:35;20.10;99.90
49679;DHT22;35570;48.218;16.326;2023-06-10T07:05:01;20.20;99.90
49679;DHT22;35570;48.218;16.326;2023-06-10T07:07:26;20.30;99.90
49679;DHT22;35570;48.218;16.326;2023-06-10T07:09:52;20.40;99.90
49679;DHT22;35570;48.218;16.326;2023-06-10T07:12:18;20.50;99.90
49679;DHT22;35570;48.218;16.326;2023-06-10T07:14:44;20.50;99.90
49679;DHT22;35570;48.218;16.326;2023-06-10T07:17:09;20.60;99.90
49679;DHT22;35570;48.218;16.326;2023-06-10T07:19:35;20.60;99.90
49679;DHT22;35570;48.218;16.326;2023-06-10T07:22:01;20.60;99.90
49679;DHT22;35570;48.218;16.326;2023-06-10T07:24:26;20.70;99.90
49679;DHT22;35570;48.218;16.326;2023-06-10T07:26:52;20.60;99.90
49679;DHT22;35570;48.218;16.326;2023-06-10T07:29:18;20.60;99.90
49679;DHT22;35570;48.218;16.326;2023-06-10T07:31:43;20.60;99.90
49679;DHT22;35570;48.218;16.326;2023-06-10T07:34:09;20.60;99.90
49679;DHT22;35570;48.218;16.326;2023-06-10T07:36:35;20.70;99.90
49679;DHT22;35570;48.218;16.326;2023-06-10T07:39:01;20.70;99.90
49679;DHT22;35570;48.218;16.326;2023-06-10T07:41:27;20.80;99.90
49679;DHT22;35570;48.218;16.326;2023-06-10T07:43:53;20.80;99.90
49679;DHT22;35570;48.218;16.326;2023-06-10T07:46:23;20.90;99.90
49679;DHT22;35570;48.218;16.326;2023-06-10T07:48:49;20.90;99.90
49679;DHT22;35570;48.218;16.326;2023-06-10T07:51:16;20.90;99.90
49679;DHT22;35570;48.218;16.326;2023-06-10T07:53:42;21.00;99.90
49679;DHT22;35570;48.218;16.326;2023-06-10T07:56:07;21.00;99.90
49679;DHT22;35570;48.218;16.326;2023-06-10T07:58:33;21.00;99.90
49679;DHT22;35570;48.218;16.326;2023-06-10T08:00:59;21.00;99.90
49679;DHT22;35570;48.218;16.326;2023-06-10T08:03:24;21.00;99.90
49679;DHT22;35570;48.218;16.326;2023-06-10T08:05:50;21.00;99.90
49679;DHT22;35570;48.218;16.326;2023-06-10T08:08:15;21.00;99.90
49679;DHT22;35570;48.218;16.326;2023-06-10T08:10:41;21.00;99.90
49679;DHT22;35570;48.218;16.326;2023-06-10T08:13:08;21.00;99.90
49679;DHT22;35570;48.218;16.326;2023-06-10T08:15:34;21.00;99.90
49679;DHT22;35570;48.218;16.326;2023-06-10T08:17:59;21.00;99.90
49679;DHT22;35570;48.218;16.326;2023-06-10T08:20:25;21.00;99.90
49679;DHT22;35570;48.218;16.326;2023-06-10T08:22:51;20.90;99.90
49679;DHT22;35570;48.218;16.326;2023-06-10T08:25:16;21.00;99.90
49679;DHT22;35570;48.218;16.326;2023-06-10T08:27:42;20.90;99.90
49679;DHT22;35570;48.218;16.326;2023-06-10T08:30:08;20.80;99.90
49679;DHT22;35570;48.218;16.326;2023-06-10T08:32:36;20.80;99.90
49679;DHT22;35570;48.218;16.326;2023-06-10T08:35:02;20.80;99.90
49679;DHT22;35570;48.218;16.326;2023-06-10T08:37:27;20.80;99.90
49679;DHT22;35570;48.218;16.326;2023-06-10T08:39:53;20.80;99.90
49679;DHT22;35570;48.218;16.326;2023-06-10T08:42:32;20.80;99.90
49679;DHT22;35570;48.218;16.326;2023-06-10T08:45:02;20.80;99.90
49679;DHT22;35570;48.218;16.326;2023-06-10T08:47:30;20.90;99.90
49679;DHT22;35570;48.218;16.326;2023-06-10T08:50:03;21.00;99.90
49679;DHT22;35570;48.218;16.326;2023-06-10T08:52:34;21.00;99.90
49679;DHT22;35570;48.218;16.326;2023-06-10T08:55:04;21.10;99.90
49679;DHT22;35570;48.218;16.326;2023-06-10T08:57:30;21.20;99.90
49679;DHT22;35570;48.218;16.326;2023-06-10T08:59:57;21.30;99.90
49679;DHT22;35570;48.218;16.326;2023-06-10T09:02:24;21.30;99.90
49679;DHT22;35570;48.218;16.326;2023-06-10T09:04:50;21.30;99.90
49679;DHT22;35570;48.218;16.326;2023-06-10T09:07:16;21.30;99.90
49679;DHT22;35570;48.218;16.326;2023-06-10T09:09:45;21.40;99.90
49679;DHT22;35570;48.218;16.326;2023-06-10T09:12:13;21.40;99.90
49679;DHT22;35570;48.218;16.326;2023-06-10T09:14:39;21.50;99.90
49679;DHT22;35570;48.218;16.326;2023-06-10T09:17:05;21.60;99.90
49679;DHT22;35570;48.218;16.326;2023-06-10T09:19:31;21.60;99.90
49679;DHT22;35570;48.218;16.326;2023-06-10T09:21:58;21.60;99.90
49679;DHT22;35570;48.218;16.326;2023-06-10T09:24:24;21.60;99.90
49679;DHT22;35570;48.218;16.326;2023-06-10T09:26:50;21.60;99.90
49679;DHT22;35570;48.218;16.326;2023-06-10T09:29:16;21.70;99.90
49679;DHT22;35570;48.218;16.326;2023-06-10T09:31:43;21.70;99.90
49679;DHT22;35570;48.218;16.326;2023-06-10T09:34:11;21.70;99.90
49679;DHT22;35570;48.218;16.326;2023-06-10T09:36:38;21.90;99.90
49679;DHT22;35570;48.218;16.326;2023-06-10T09:39:05;21.90;99.90
49679;DHT22;35570;48.218;16.326;2023-06-10T09:41:42;22.10;99.90
49679;DHT22;35570;48.218;16.326;2023-06-10T09:44:18;22.10;99.90
49679;DHT22;35570;48.218;16.326;2023-06-10T09:46:50;22.20;99.90
49679;DHT22;35570;48.218;16.326;2023-06-10T09:49:17;22.40;99.90
49679;DHT22;35570;48.218;16.326;2023-06-10T09:51:54;22.50;99.90
49679;DHT22;35570;48.218;16.326;2023-06-10T09:54:20;22.50;99.10
49679;DHT22;35570;48.218;16.326;2023-06-10T09:56:48;22.40;99.40
49679;DHT22;35570;48.218;16.326;2023-06-10T09:59:14;22.30;99.70
49679;DHT22;35570;48.218;16.326;2023-06-10T10:01:40;22.30;99.90
49679;DHT22;35570;48.218;16.326;2023-06-10T10:04:06;22.40;99.90
49679;DHT22;35570;48.218;16.326;2023-06-10T10:06:31;22.60;99.90
49679;DHT22;35570;48.218;16.326;2023-06-10T10:09:02;22.70;99.90
49679;DHT22;35570;48.218;16.326;2023-06-10T10:11:30;22.80;99.90
49679;DHT22;35570;48.218;16.326;2023-06-10T10:13:57;23.00;99.90
49679;DHT22;35570;48.218;16.326;2023-06-10T10:16:42;23.10;99.80
49679;DHT22;35570;48.218;16.326;2023-06-10T10:19:15;23.20;99.30
49679;DHT22;35570;48.218;16.326;2023-06-10T10:22:01;23.20;98.50
49679;DHT22;35570;48.218;16.326;2023-06-10T10:24:34;23.30;98.90
49679;DHT22;35570;48.218;16.326;2023-06-10T10:27:05;23.40;97.70
49679;DHT22;35570;48.218;16.326;2023-06-10T10:29:43;23.40;99.40
49679;DHT22;35570;48.218;16.326;2023-06-10T10:32:12;23.40;98.30
49679;DHT22;35570;48.218;16.326;2023-06-10T10:35:20;23.50;98.80
49679;DHT22;35570;48.218;16.326;2023-06-10T10:37:43;23.60;98.50
49679;DHT22;35570;48.218;16.326;2023-06-10T10:40:10;24.00;98.00
49679;DHT22;35570;48.218;16.326;2023-06-10T10:42:37;24.30;96.40
49679;DHT22;35570;48.218;16.326;2023-06-10T10:45:04;24.50;96.20
49679;DHT22;35570;48.218;16.326;2023-06-10T10:47:31;24.70;94.00
49679;DHT22;35570;48.218;16.326;2023-06-10T10:49:58;24.80;93.80
49679;DHT22;35570;48.218;16.326;2023-06-10T10:52:25;25.00;94.40
49679;DHT22;35570;48.218;16.326;2023-06-10T10:54:53;25.40;91.90
49679;DHT22;35570;48.218;16.326;2023-06-10T10:57:21;25.70;90.60
49679;DHT22;35570;48.218;16.326;2023-06-10T10:59:56;25.80;86.60
49679;DHT22;35570;48.218;16.326;2023-06-10T11:05:01;26.30;85.90
49679;DHT22;35570;48.218;16.326;2023-06-10T11:07:30;26.70;85.80
49679;DHT22;35570;48.218;16.326;2023-06-10T11:15:10;27.20;81.30
49679;DHT22;35570;48.218;16.326;2023-06-10T11:17:35;27.20;80.20
49679;DHT22;35570;48.218;16.326;2023-06-10T11:20:01;27.20;81.50
49679;DHT22;35570;48.218;16.326;2023-06-10T11:22:27;27.20;78.30
49679;DHT22;35570;48.218;16.326;2023-06-10T11:24:52;27.00;75.50
49679;DHT22;35570;48.218;16.326;2023-06-10T11:27:19;26.60;75.30
49679;DHT22;35570;48.218;16.326;2023-06-10T11:32:30;26.20;80.70
49679;DHT22;35570;48.218;16.326;2023-06-10T11:34:59;26.20;82.20
49679;DHT22;35570;48.218;16.326;2023-06-10T11:37:25;26.30;86.40
49679;DHT22;35570;48.218;16.326;2023-06-10T11:39:54;26.50;80.80
49679;DHT22;35570;48.218;16.326;2023-06-10T11:42:24;26.90;77.60
49679;DHT22;35570;48.218;16.326;2023-06-10T11:44:53;27.00;76.20
49679;DHT22;35570;48.218;16.326;2023-06-10T11:47:19;27.00;75.50
49679;DHT22;35570;48.218;16.326;2023-06-10T11:49:46;27.10;78.20
49679;DHT22;35570;48.218;16.326;2023-06-10T11:52:12;27.40;78.10
49679;DHT22;35570;48.218;16.326;2023-06-10T11:54:38;27.80;77.20
49679;DHT22;35570;48.218;16.326;2023-06-10T11:57:04;28.30;74.30
49679;DHT22;35570;48.218;16.326;2023-06-10T11:59:30;28.60;70.90
49679;DHT22;35570;48.218;16.326;2023-06-10T12:01:56;28.60;71.70
49679;DHT22;35570;48.218;16.326;2023-06-10T12:04:22;28.40;72.90
49679;DHT22;35570;48.218;16.326;2023-06-10T12:06:49;28.10;70.10
49679;DHT22;35570;48.218;16.326;2023-06-10T12:11:44;28.00;73.50
49679;DHT22;35570;48.218;16.326;2023-06-10T12:14:10;28.20;73.30
49679;DHT22;35570;48.218;16.326;2023-06-10T12:16:36;28.30;71.10
49679;DHT22;35570;48.218;16.326;2023-06-10T12:19:03;28.30;70.70
49679;DHT22;35570;48.218;16.326;2023-06-10T12:21:31;28.20;71.30
49679;DHT22;35570;48.218;16.326;2023-06-10T12:24:04;28.10;72.40
49679;DHT22;35570;48.218;16.326;2023-06-10T12:26:41;28.00;72.00
49679;DHT22;35570;48.218;16.326;2023-06-10T12:29:18;28.00;72.60
49679;DHT22;35570;48.218;16.326;2023-06-10T12:32:03;27.90;72.30
49679;DHT22;35570;48.218;16.326;2023-06-10T12:34:40;27.60;70.50
49679;DHT22;35570;48.218;16.326;2023-06-10T12:37:09;27.50;72.10
49679;DHT22;35570;48.218;16.326;2023-06-10T12:39:38;27.50;72.10
49679;DHT22;35570;48.218;16.326;2023-06-10T12:42:04;27.40;71.40
49679;DHT22;35570;48.218;16.326;2023-06-10T12:44:32;27.20;72.50
49679;DHT22;35570;48.218;16.326;2023-06-10T12:46:58;26.90;70.90
49679;DHT22;35570;48.218;16.326;2023-06-10T12:49:24;26.50;71.30
49679;DHT22;35570;48.218;16.326;2023-06-10T12:51:52;26.10;74.90
49679;DHT22;35570;48.218;16.326;2023-06-10T12:54:17;25.80;82.60
49679;DHT22;35570;48.218;16.326;2023-06-10T12:56:43;25.40;91.00
49679;DHT22;35570;48.218;16.326;2023-06-10T12:59:09;25.00;94.50
49679;DHT22;35570;48.218;16.326;2023-06-10T13:01:36;24.70;96.60
49679;DHT22;35570;48.218;16.326;2023-06-10T13:04:05;24.50;98.70
49679;DHT22;35570;48.218;16.326;2023-06-10T13:06:32;24.20;99.90
49679;DHT22;35570;48.218;16.326;2023-06-10T13:09:01;24.10;99.90
49679;DHT22;35570;48.218;16.326;2023-06-10T13:11:28;24.00;99.90
49679;DHT22;35570;48.218;16.326;2023-06-10T13:13:53;23.90;99.90
49679;DHT22;35570;48.218;16.326;2023-06-10T13:16:19;23.80;99.90
49679;DHT22;35570;48.218;16.326;2023-06-10T13:18:45;23.70;99.90
49679;DHT22;35570;48.218;16.326;2023-06-10T13:21:11;23.70;99.90
49679;DHT22;35570;48.218;16.326;2023-06-10T13:23:37;23.80;99.90
49679;DHT22;35570;48.218;16.326;2023-06-10T13:26:02;23.80;99.90
49679;DHT22;35570;48.218;16.326;2023-06-10T13:28:28;23.90;99.90
49679;DHT22;35570;48.218;16.326;2023-06-10T13:30:54;23.90;99.90
49679;DHT22;35570;48.218;16.326;2023-06-10T13:33:19;24.10;99.90
49679;DHT22;35570;48.218;16.326;2023-06-10T13:35:46;24.10;99.90
49679;DHT22;35570;48.218;16.326;2023-06-10T13:38:12;24.20;99.90
49679;DHT22;35570;48.218;16.326;2023-06-10T13:40:38;24.30;99.90
49679;DHT22;35570;48.218;16.326;2023-06-10T13:43:03;24.30;99.90
49679;DHT22;35570;48.218;16.326;2023-06-10T13:45:29;24.30;99.90
49679;DHT22;35570;48.218;16.326;2023-06-10T13:47:54;24.30;99.90
49679;DHT22;35570;48.218;16.326;2023-06-10T13:50:20;24.30;99.70
49679;DHT22;35570;48.218;16.326;2023-06-10T13:52:46;24.30;99.90
49679;DHT22;35570;48.218;16.326;2023-06-10T13:55:11;24.30;99.60
49679;DHT22;35570;48.218;16.326;2023-06-10T13:57:37;24.30;99.40
49679;DHT22;35570;48.218;16.326;2023-06-10T14:00:03;24.20;99.30
49679;DHT22;35570;48.218;16.326;2023-06-10T14:02:29;24.20;99.30
49679;DHT22;35570;48.218;16.326;2023-06-10T14:04:54;24.10;99.30
49679;DHT22;35570;48.218;16.326;2023-06-10T14:07:20;24.20;99.20
49679;DHT22;35570;48.218;16.326;2023-06-10T14:09:46;24.20;99.20
49679;DHT22;35570;48.218;16.326;2023-06-10T14:12:11;24.30;98.80
49679;DHT22;35570;48.218;16.326;2023-06-10T14:14:38;24.30;97.70
49679;DHT22;35570;48.218;16.326;2023-06-10T14:17:03;24.30;97.80
49679;DHT22;35570;48.218;16.326;2023-06-10T14:19:30;24.50;98.50
49679;DHT22;35570;48.218;16.326;2023-06-10T14:21:56;24.70;97.70
49679;DHT22;35570;48.218;16.326;2023-06-10T14:24:21;24.80;96.70
49679;DHT22;35570;48.218;16.326;2023-06-10T14:26:47;25.00;96.80
49679;DHT22;35570;48.218;16.326;2023-06-10T14:29:13;25.10;95.80
49679;DHT22;35570;48.218;16.326;2023-06-10T14:31:43;25.10;94.90
49679;DHT22;35570;48.218;16.326;2023-06-10T14:34:09;25.00;95.20
49679;DHT22;35570;48.218;16.326;2023-06-10T14:36:34;25.00;95.40
49679;DHT22;35570;48.218;16.326;2023-06-10T14:39:00;25.00;95.70
49679;DHT22;35570;48.218;16.326;2023-06-10T14:41:26;24.90;95.80
49679;DHT22;35570;48.218;16.326;2023-06-10T14:43:52;24.90;96.20
49679;DHT22;35570;48.218;16.326;2023-06-10T14:46:17;24.90;95.50
49679;DHT22;35570;48.218;16.326;2023-06-10T14:48:43;24.90;96.30
49679;DHT22;35570;48.218;16.326;2023-06-10T14:51:09;24.80;96.10
49679;DHT22;35570;48.218;16.326;2023-06-10T14:53:35;24.80;95.90
49679;DHT22;35570;48.218;16.326;2023-06-10T14:56:00;24.80;96.30
49679;DHT22;35570;48.218;16.326;2023-06-10T14:58:26;24.90;96.20
49679;DHT22;35570;48.218;16.326;2023-06-10T15:00:51;24.90;96.50
49679;DHT22;35570;48.218;16.326;2023-06-10T15:03:17;24.90;96.10
49679;DHT22;35570;48.218;16.326;2023-06-10T15:05:42;25.00;95.60
49679;DHT22;35570;48.218;16.326;2023-06-10T15:08:08;25.10;95.40
49679;DHT22;35570;48.218;16.326;2023-06-10T15:10:34;25.10;95.40
49679;DHT22;35570;48.218;16.326;2023-06-10T15:12:59;25.10;95.40
49679;DHT22;35570;48.218;16.326;2023-06-10T15:15:25;25.10;95.10
49679;DHT22;35570;48.218;16.326;2023-06-10T15:17:51;25.10;95.30
49679;DHT22;35570;48.218;16.326;2023-06-10T15:20:17;25.10;95.10
49679;DHT22;35570;48.218;16.326;2023-06-10T15:22:43;25.20;95.20
49679;DHT22;35570;48.218;16.326;2023-06-10T15:25:09;25.10;94.60
49679;DHT22;35570;48.218;16.326;2023-06-10T15:27:34;25.10;95.30
49679;DHT22;35570;48.218;16.326;2023-06-10T15:30:00;25.10;94.80